This is the latest recevied weather packets stored in our database for station/object K7SKM. If no packets are shown the sender has not sent any weather packets the latest 10 day(s).
| Time | Temp. | Humidity | Pressure | Rain* | Wind** | Luminosity | Snow |
|---|---|---|---|---|---|---|---|
| 1777224992 | 17.22° C | 32% | 1014.3 hPa | 0 mm | - | 301 W/m² | - |
| 1777224690 | 17.22° C | 33% | 1014.4 hPa | 0 mm | - | 295 W/m² | - |
| 1777224390 | 17.78° C | 33% | 1014.2 hPa | 0 mm | - | 288 W/m² | - |
| 1777224086 | 16.67° C | 33% | 1014.5 hPa | 0 mm | - | 280 W/m² | - |
| 1777223784 | 16.67° C | 33% | 1014.1 hPa | 0 mm | - | 273 W/m² | - |
| 1777223479 | 16.67° C | 33% | 1014.3 hPa | 0 mm | - | 268 W/m² | - |
| 1777223177 | 16.67° C | 32% | 1014.4 hPa | 0 mm | - | 262 W/m² | - |
| 1777222874 | 15.56° C | 33% | 1014.3 hPa | 0 mm | - | 254 W/m² | - |
| 1777222572 | 15° C | 36% | 1014.5 hPa | 0 mm | - | 248 W/m² | - |
| 1777222269 | 15.56° C | 34% | 1014.5 hPa | 0 mm | - | 245 W/m² | - |
| 1777221968 | 16.11° C | 36% | 1014.6 hPa | 0 mm | - | 237 W/m² | - |
| 1777221662 | 15° C | 37% | 1014.3 hPa | 0 mm | - | 229 W/m² | - |
| 1777221359 | 13.89° C | 42% | 1014.4 hPa | 0 mm | - | 225 W/m² | - |
| 1777221057 | 14.44° C | 42% | 1014.5 hPa | 0 mm | - | 218 W/m² | - |
| 1777220756 | 13.89° C | 44% | 1014.4 hPa | 0 mm | - | 211 W/m² | - |
| 1777220453 | 13.33° C | 45% | 1014.4 hPa | 0 mm | - | 206 W/m² | - |
| 1777220152 | 13.33° C | 44% | 1014.4 hPa | 0 mm | - | 199 W/m² | - |
| 1777219849 | 12.22° C | 46% | 1014.6 hPa | 0 mm | - | 194 W/m² | - |
| 1777219547 | 12.22° C | 46% | 1014.6 hPa | 0 mm | - | 189 W/m² | - |
| 1777219244 | 11.67° C | 48% | 1014.4 hPa | 0 mm | - | 183 W/m² | - |
| 1777218939 | 11.67° C | 49% | 1014.5 hPa | 0 mm | - | 175 W/m² | - |
| 1777218635 | 10.56° C | 51% | 1014.6 hPa | 0 mm | - | 169 W/m² | - |
| 1777218330 | 10° C | 56% | 1014.5 hPa | 0 mm | - | 160 W/m² | - |
| 1777218028 | 8.33° C | 61% | 1014.6 hPa | 0 mm | - | 140 W/m² | - |
| 1777217723 | 7.78° C | 63% | 1014.7 hPa | 0 mm | - | 35 W/m² | - |
* Rain latest hour (hover to see other rain measurements)
** Current wind speed in m/s (hover to see current wind gust speed)